Shaws, Illinois
Current Conditions -  °F | °C
As of 8:35 PM on Sunday 23 Nov 2014 (Local Time) from KSQI Reporting Station
Overcast Overcast  
Wind Chill: 46°   Ceiling: 600
Heat Index: 48°   Visibility: 2.5mi
Dew Point: 46°   Wind: 5mph
Humidity: 93%   Direction: 120°ESE
Pressure: 29.22"   Gusts: NA
Location:  41.7017°N, 89.348°W
Report Text: KSQI 240235Z 12004KT 2 1/2SM OVC006 09/08 A2922 RMK AO1
Loading
Personal Weather Stations






























Interactive Weather Map New forecast layout! Learn more

10-Day Weather Forecast

Advertisements
Track Severe Weather on mobile